createdAt,value
2018-04-19T03:33:47.963Z,37.17
2018-04-19T03:36:16.928Z,37.92
2018-04-19T03:38:44.072Z,38.67
2018-04-19T03:41:10.449Z,35.65
2018-04-19T03:43:36.867Z,37.00
2018-04-19T03:46:04.204Z,36.97
2018-04-19T03:48:31.361Z,36.50
2018-04-19T03:50:58.480Z,38.35
2018-04-19T03:53:24.911Z,36.10
2018-04-19T03:55:51.299Z,35.57
2018-04-19T03:58:17.664Z,34.27
2018-04-19T04:00:44.047Z,33.30
2018-04-19T04:03:11.150Z,32.80
2018-04-19T04:05:37.552Z,33.35
2018-04-19T04:08:03.941Z,32.70
2018-04-19T04:10:31.065Z,32.58
2018-04-19T04:12:57.448Z,33.45
2018-04-19T04:15:24.556Z,32.88
2018-04-19T04:18:03.371Z,33.47
2018-04-19T04:20:41.997Z,32.38
2018-04-19T04:23:30.332Z,33.80
2018-04-19T04:25:56.700Z,32.05
2018-04-19T04:28:23.092Z,32.75
2018-04-19T04:30:49.536Z,32.53
2018-04-19T04:33:15.926Z,31.85
2018-04-19T04:35:43.048Z,32.28
2018-04-19T04:38:09.457Z,31.77
2018-04-19T04:40:35.824Z,32.63
2018-04-19T04:43:02.224Z,33.05
2018-04-19T04:45:28.765Z,31.80
2018-04-19T04:47:55.149Z,31.85
2018-04-19T04:50:22.268Z,32.10
2018-04-19T04:52:48.672Z,30.33
2018-04-19T04:55:15.043Z,31.77
2018-04-19T04:57:41.435Z,31.67
2018-04-19T05:00:07.988Z,30.70
2018-04-19T05:02:34.395Z,31.77
2018-04-19T05:05:00.765Z,31.17
2018-04-19T05:07:27.192Z,30.08
2018-04-19T05:09:53.580Z,29.87
2018-04-19T05:12:20.707Z,30.73
2018-04-19T05:14:47.097Z,30.42
2018-04-19T05:17:14.667Z,29.75
2018-04-19T05:19:41.120Z,29.45
2018-04-19T05:22:07.524Z,28.52
2018-04-19T05:24:33.890Z,29.80
2018-04-19T05:27:00.292Z,30.10
2018-04-19T05:29:26.647Z,29.60
2018-04-19T05:31:53.067Z,30.45
2018-04-19T05:34:19.480Z,29.95
2018-04-19T05:36:45.888Z,30.60
2018-04-19T05:39:12.247Z,30.15
2018-04-19T05:41:38.649Z,29.57
2018-04-19T05:44:05.042Z,28.40
2018-04-19T05:46:31.429Z,29.45
2018-04-19T05:48:58.558Z,29.17
2018-04-19T05:51:24.928Z,28.83
2018-04-19T05:53:52.056Z,29.08
2018-04-19T05:56:18.423Z,27.77
2018-04-19T05:58:44.854Z,28.60
2018-04-19T06:01:11.280Z,30.42
2018-04-19T06:03:38.387Z,29.02
2018-04-19T06:06:04.801Z,27.80
2018-04-19T06:08:31.175Z,27.73
2018-04-19T06:10:58.321Z,25.80
2018-04-19T06:13:24.717Z,27.25
2018-04-19T06:15:51.081Z,27.35
2018-04-19T06:18:17.475Z,26.33
2018-04-19T06:20:43.835Z,27.00
2018-04-19T06:23:10.225Z,27.70
2018-04-19T06:25:36.580Z,26.92
2018-04-19T06:28:02.944Z,26.48
2018-04-19T06:30:29.345Z,25.95
2018-04-19T06:32:55.716Z,26.90
2018-04-19T06:35:22.153Z,24.60
2018-04-19T06:37:48.564Z,24.60
2018-04-19T06:40:14.975Z,25.15
2018-04-19T06:42:41.340Z,23.70
2018-04-19T06:45:07.740Z,22.25
2018-04-19T06:47:34.169Z,22.50
2018-04-19T06:50:01.047Z,22.58
2018-04-19T06:52:27.439Z,21.10
2018-04-19T06:54:54.560Z,20.80
2018-04-19T06:57:20.935Z,21.00
2018-04-19T06:59:47.390Z,19.75
2018-04-19T07:33:58.271Z,18.67
2018-04-19T07:36:24.638Z,19.13
2018-04-19T07:38:51.015Z,18.20
2018-04-19T07:41:18.145Z,17.27
2018-04-19T07:43:44.568Z,17.33
2018-04-19T07:46:11.043Z,17.97
2018-04-19T07:48:37.419Z,19.85
2018-04-19T07:51:03.825Z,20.27
2018-04-19T07:53:30.264Z,16.67
2018-04-19T07:55:56.645Z,15.70
2018-04-19T07:58:23.075Z,17.30
2018-04-19T08:00:49.469Z,16.80
2018-04-19T08:03:15.839Z,16.00
2018-04-19T10:37:07.665Z,13.10
2018-04-19T10:39:34.082Z,11.17
2018-04-19T10:42:00.452Z,11.77
2018-04-19T10:44:26.823Z,12.00
2018-04-19T10:46:53.987Z,11.63
2018-04-19T10:49:20.352Z,11.23
2018-04-19T10:51:46.740Z,13.70
2018-04-19T10:54:13.839Z,11.83
2018-04-19T10:56:40.239Z,13.63
2018-04-19T10:59:06.616Z,12.57
2018-04-19T11:01:32.967Z,12.60
2018-04-19T11:04:00.091Z,12.93
2018-04-19T11:06:26.492Z,12.87
2018-04-19T11:08:52.891Z,12.90
2018-04-19T11:11:19.263Z,13.90
2018-04-19T11:13:46.360Z,14.23
2018-04-19T11:16:12.737Z,12.47
2018-04-19T11:18:39.118Z,13.80
2018-04-19T11:21:05.504Z,14.13
2018-04-19T11:23:31.883Z,13.43
2018-04-19T18:06:08.910Z,2.93
2018-04-19T18:08:35.348Z,2.70
2018-04-19T18:11:01.833Z,2.90
2018-04-19T18:13:28.323Z,3.70
2018-04-19T18:15:54.755Z,3.70
2018-04-19T19:14:49.521Z,2.93
2018-04-19T19:17:30.213Z,3.37
2018-04-19T19:20:10.983Z,2.93
2018-04-19T19:22:37.649Z,3.50
2018-04-19T19:25:04.053Z,3.40
2018-04-19T19:27:30.484Z,3.10
2018-04-19T19:29:56.852Z,3.17
2018-04-19T19:32:23.262Z,4.27
2018-04-19T19:34:49.684Z,4.03
2018-04-19T19:37:17.140Z,3.50
2018-04-19T19:39:43.543Z,3.93
2018-04-19T19:42:10.699Z,3.17
2018-04-19T19:44:37.998Z,3.70
2018-04-19T19:49:31.003Z,2.95
2018-04-19T19:51:57.461Z,3.10
2018-04-19T19:54:24.574Z,3.85
2018-04-19T20:01:43.421Z,3.50
2018-04-19T20:04:09.856Z,4.28
2018-04-19T20:06:36.965Z,4.10
2018-04-19T20:09:03.436Z,4.20
2018-04-19T20:11:30.551Z,4.80
2018-04-19T20:13:56.935Z,5.00
2018-04-19T20:16:23.349Z,4.70
2018-04-19T20:18:50.544Z,5.43
2018-04-19T20:21:17.081Z,5.00
2018-04-19T20:23:43.513Z,4.60
2018-04-19T20:26:09.919Z,4.60
2018-04-19T20:28:37.027Z,4.97
2018-04-19T20:31:03.420Z,5.10
2018-04-19T20:33:29.810Z,5.05
2018-04-19T20:35:56.177Z,4.95
2018-04-19T20:38:22.581Z,5.20
2018-04-19T20:40:48.948Z,5.50
2018-04-19T20:43:15.345Z,5.50
2018-04-19T20:45:41.747Z,6.80
2018-04-19T20:48:08.136Z,5.30
2018-04-19T20:50:35.264Z,5.07
2018-04-19T20:53:02.427Z,5.20
2018-04-19T20:55:28.824Z,5.30
2018-04-19T20:57:55.220Z,5.40
2018-04-19T21:00:21.591Z,5.28
2018-04-19T21:02:47.998Z,5.25
2018-04-19T21:05:14.391Z,5.30
2018-04-19T21:07:40.797Z,5.05
2018-04-19T21:10:07.216Z,5.53
2018-04-19T21:12:33.655Z,5.30
2018-04-19T21:15:00.048Z,5.53
2018-04-19T21:17:27.155Z,5.10
2018-04-19T21:19:53.599Z,5.53
2018-04-19T21:22:19.997Z,5.45
2018-04-19T21:24:46.488Z,5.50
2018-04-19T21:27:12.921Z,5.72
2018-04-19T21:29:39.380Z,5.80
2018-04-19T21:32:05.787Z,5.00
2018-04-19T21:34:32.905Z,5.30
2018-04-19T21:36:59.305Z,4.90
2018-04-19T21:39:25.691Z,5.20
2018-04-19T21:41:52.056Z,4.70
2018-04-19T21:44:19.190Z,4.90
2018-04-19T21:46:45.565Z,5.10
2018-04-19T21:49:11.943Z,5.10
2018-04-19T21:51:38.304Z,5.90
2018-04-19T21:54:05.436Z,4.85
2018-04-19T21:56:32.575Z,5.32
2018-04-19T21:58:58.944Z,5.40
2018-04-19T22:01:26.078Z,5.00
2018-04-19T22:03:53.185Z,5.55
2018-04-19T22:06:19.571Z,5.50
2018-04-19T22:08:46.681Z,5.50
2018-04-19T22:11:13.064Z,4.90
2018-04-19T22:13:39.459Z,4.80
2018-04-19T22:16:05.827Z,5.25
2018-04-19T22:18:32.960Z,5.70
2018-04-19T22:20:59.348Z,5.43
2018-04-19T22:26:16.243Z,5.68
2018-04-19T22:28:43.344Z,5.30
2018-04-19T22:31:09.731Z,5.28
2018-04-19T22:33:36.836Z,5.37
2018-04-19T22:36:03.282Z,5.75
2018-04-19T22:38:29.724Z,5.60
2018-04-19T22:40:56.158Z,5.40
2018-04-19T22:43:22.567Z,5.90
2018-04-19T22:45:48.937Z,5.62
2018-04-19T22:48:16.115Z,6.35
2018-04-19T22:50:42.527Z,5.90
2018-04-19T22:53:09.650Z,6.25
2018-04-19T22:55:36.034Z,5.85
2018-04-19T22:58:02.442Z,6.20
